createdAt,value
2023-02-17T00:01:23.300Z,30.25
2023-02-17T00:03:51.180Z,28.33
2023-02-17T00:06:20.519Z,27.52
2023-02-17T00:08:48.578Z,27.47
2023-02-17T00:11:16.125Z,26.30
2023-02-17T00:13:43.151Z,25.97
2023-02-17T00:16:11.067Z,25.10
2023-02-17T00:18:37.982Z,25.27
2023-02-17T00:21:22.028Z,25.02
2023-02-17T00:23:50.630Z,24.75
2023-02-17T00:26:18.760Z,25.65
2023-02-17T00:28:46.068Z,27.20
2023-02-17T00:31:24.222Z,28.23
2023-02-17T00:33:55.578Z,27.10
2023-02-17T00:36:22.533Z,27.73
2023-02-17T00:38:49.901Z,27.25
2023-02-17T00:41:18.156Z,27.83
2023-02-17T00:43:45.482Z,27.10
2023-02-17T00:46:12.465Z,27.92
2023-02-17T00:48:39.687Z,28.58
2023-02-17T00:51:06.581Z,27.83
2023-02-17T00:53:33.476Z,28.08
2023-02-17T00:56:00.299Z,28.67
2023-02-17T00:58:27.598Z,29.25
2023-02-17T01:00:58.018Z,30.00
2023-02-17T01:03:25.942Z,29.90
2023-02-17T01:05:54.534Z,28.20
2023-02-17T01:08:22.801Z,28.42
2023-02-17T01:10:50.445Z,28.48
2023-02-17T01:13:18.207Z,29.20
2023-02-17T01:15:47.795Z,30.65
2023-02-17T01:18:15.647Z,29.98
2023-02-17T01:20:43.158Z,29.75
2023-02-17T01:23:11.626Z,30.95
2023-02-17T01:25:39.454Z,31.10
2023-02-17T01:28:07.655Z,31.20
2023-02-17T01:30:34.834Z,31.35
2023-02-17T01:33:01.757Z,31.55
2023-02-17T01:35:28.837Z,31.02
2023-02-17T01:37:55.720Z,31.43
2023-02-17T01:40:22.673Z,30.03
2023-02-17T01:42:49.535Z,30.50
2023-02-17T01:45:19.207Z,30.92
2023-02-17T01:47:58.130Z,29.93
2023-02-17T01:50:50.200Z,29.17
2023-02-17T01:53:22.158Z,28.38
2023-02-17T01:55:49.718Z,28.75
2023-02-17T01:58:19.728Z,29.98
2023-02-17T02:00:48.305Z,30.45
2023-02-17T02:03:15.447Z,29.80
2023-02-17T02:05:42.944Z,30.58
2023-02-17T02:08:12.323Z,30.03
2023-02-17T02:10:39.389Z,29.75
2023-02-17T02:13:07.593Z,28.73
2023-02-17T02:15:50.390Z,27.52
2023-02-17T02:18:46.181Z,27.00
2023-02-17T02:21:40.344Z,27.80
2023-02-17T02:24:31.616Z,28.08
2023-02-17T02:27:17.375Z,27.38
2023-02-17T02:30:26.522Z,27.00
2023-02-17T02:33:16.554Z,26.98
2023-02-17T02:35:56.349Z,27.15
2023-02-17T02:38:37.440Z,25.60
2023-02-17T02:41:27.310Z,26.20
2023-02-17T02:43:54.671Z,25.83
2023-02-17T02:46:21.639Z,25.37
2023-02-17T02:48:50.042Z,26.00
2023-02-17T02:51:31.579Z,25.20
2023-02-17T02:54:07.572Z,25.25
2023-02-17T02:56:34.645Z,25.30
2023-02-17T02:59:13.427Z,24.25
2023-02-17T03:01:45.501Z,23.92
2023-02-17T03:04:12.417Z,23.98
2023-02-17T03:06:53.377Z,23.37
2023-02-17T03:09:24.404Z,23.17
2023-02-17T03:11:52.485Z,23.25
2023-02-17T03:14:21.319Z,23.50
2023-02-17T03:16:49.330Z,23.08
2023-02-17T03:19:18.648Z,22.08
2023-02-17T03:21:52.746Z,22.83
2023-02-17T03:24:19.947Z,22.17
2023-02-17T03:26:46.792Z,22.35
2023-02-17T03:29:13.598Z,21.33
2023-02-17T03:31:41.240Z,20.80
2023-02-17T03:34:08.521Z,20.35
2023-02-17T03:36:35.435Z,21.77
2023-02-17T03:39:02.383Z,22.23
2023-02-17T03:41:29.295Z,21.65
2023-02-17T03:43:56.172Z,20.77
2023-02-17T03:46:23.037Z,21.65
2023-02-17T03:48:49.915Z,21.83
2023-02-17T03:51:23.022Z,21.33
2023-02-17T03:53:50.275Z,20.85
2023-02-17T03:56:18.467Z,21.80
2023-02-17T03:58:45.320Z,22.23
2023-02-17T04:01:13.039Z,22.38
2023-02-17T04:03:40.741Z,20.75
2023-02-17T04:06:09.113Z,20.40
2023-02-17T04:08:36.482Z,20.65
2023-02-17T04:11:05.740Z,21.37
2023-02-17T04:13:33.143Z,20.80
2023-02-17T04:16:01.456Z,20.48
2023-02-17T04:18:28.778Z,20.95
2023-02-17T04:20:55.677Z,21.10
2023-02-17T04:23:23.050Z,21.55
2023-02-17T04:25:50.665Z,21.27
2023-02-17T04:28:17.809Z,21.80
2023-02-17T04:30:49.526Z,22.13
2023-02-17T04:33:16.993Z,22.33
2023-02-17T04:35:43.861Z,22.53
2023-02-17T04:38:11.168Z,20.70
2023-02-17T04:40:38.733Z,21.30
2023-02-17T04:43:05.926Z,21.70
2023-02-17T04:45:33.800Z,20.67
2023-02-17T04:48:00.772Z,20.60
2023-02-17T04:50:27.723Z,19.75
2023-02-17T04:52:54.584Z,20.98
2023-02-17T04:55:21.460Z,20.52
2023-02-17T04:57:48.268Z,20.92
2023-02-17T05:00:15.344Z,19.77
2023-02-17T05:02:42.192Z,19.60
2023-02-17T05:05:09.146Z,18.75
2023-02-17T05:07:36.095Z,18.27
2023-02-17T05:10:03.186Z,18.58
2023-02-17T05:12:30.058Z,18.83
2023-02-17T05:14:56.867Z,18.73
2023-02-17T05:17:23.693Z,17.38
2023-02-17T05:19:50.496Z,17.90
2023-02-17T05:22:17.455Z,17.95
2023-02-17T05:24:44.287Z,17.20
2023-02-17T05:27:11.286Z,17.00
2023-02-17T05:29:38.159Z,17.15
2023-02-17T05:32:05.017Z,17.55
2023-02-17T05:34:32.506Z,18.10
2023-02-17T05:36:59.410Z,18.00
2023-02-17T05:39:26.369Z,17.67
2023-02-17T05:41:53.856Z,18.67
2023-02-17T05:44:21.775Z,18.27
2023-02-17T05:46:48.578Z,19.02
2023-02-17T05:49:15.455Z,19.13
2023-02-17T05:51:42.195Z,19.38
2023-02-17T05:54:09.130Z,19.60
2023-02-17T05:56:35.998Z,19.77
2023-02-17T05:59:02.881Z,20.05
2023-02-17T06:01:29.862Z,20.88
2023-02-17T06:03:56.884Z,20.30
2023-02-17T06:06:23.816Z,19.40
2023-02-17T06:08:51.445Z,20.97
2023-02-17T06:11:18.321Z,20.73
2023-02-17T06:13:45.165Z,20.42
2023-02-17T06:16:11.976Z,21.48
2023-02-17T06:18:38.918Z,22.10
2023-02-17T06:21:06.289Z,20.67
2023-02-17T06:23:33.301Z,21.13
2023-02-17T06:26:00.116Z,21.10
2023-02-17T06:28:27.107Z,21.77
2023-02-17T06:30:53.898Z,19.88
2023-02-17T06:33:20.772Z,19.85
2023-02-17T06:35:51.859Z,18.98
2023-02-17T06:38:19.491Z,19.90
2023-02-17T06:40:46.433Z,18.92
2023-02-17T06:43:13.324Z,18.13
2023-02-17T06:45:40.257Z,17.43
2023-02-17T06:48:07.169Z,17.92
2023-02-17T06:50:34.039Z,16.08
2023-02-17T06:53:00.873Z,17.05
2023-02-17T06:55:27.728Z,17.63
2023-02-17T06:57:54.613Z,14.32
2023-02-17T07:00:21.745Z,16.98
2023-02-17T07:02:48.627Z,15.07
2023-02-17T07:05:15.644Z,15.98
2023-02-17T07:07:42.498Z,14.75
2023-02-17T07:10:09.778Z,15.73
2023-02-17T07:12:36.657Z,15.43
2023-02-17T07:15:03.844Z,14.55
2023-02-17T07:17:30.639Z,14.13
2023-02-17T07:19:57.445Z,14.07
2023-02-17T07:22:26.263Z,14.45
2023-02-17T07:24:53.202Z,14.70
2023-02-17T07:27:20.119Z,13.95
2023-02-17T07:29:47.040Z,15.13
2023-02-17T07:32:13.863Z,15.57
2023-02-17T07:34:40.655Z,15.57
2023-02-17T07:37:08.941Z,15.53
2023-02-17T07:39:36.011Z,15.30
2023-02-17T07:42:05.179Z,15.77
2023-02-17T07:44:32.785Z,15.60
2023-02-17T07:46:59.656Z,15.75
2023-02-17T07:49:26.545Z,16.30
2023-02-17T07:51:53.361Z,17.07
2023-02-17T07:54:20.246Z,16.37
2023-02-17T07:56:47.118Z,16.97
2023-02-17T07:59:14.939Z,16.05
2023-02-17T08:01:42.024Z,16.42
2023-02-17T08:04:10.187Z,15.15
2023-02-17T08:06:39.724Z,15.43
2023-02-17T08:09:25.177Z,15.20
2023-02-17T08:12:10.444Z,14.85
2023-02-17T08:14:38.468Z,14.77
2023-02-17T08:17:06.542Z,15.38
2023-02-17T08:19:47.078Z,14.77
2023-02-17T08:22:18.406Z,14.57
2023-02-17T08:24:45.755Z,14.32
2023-02-17T08:27:14.851Z,14.80
2023-02-17T08:29:42.341Z,15.07
2023-02-17T08:32:09.490Z,14.88
2023-02-17T08:34:36.661Z,14.90
2023-02-17T08:37:06.301Z,13.45
2023-02-17T08:39:34.174Z,14.35
2023-02-17T08:42:01.850Z,14.50
2023-02-17T08:44:28.768Z,15.00
2023-02-17T08:46:55.830Z,15.00
2023-02-17T08:49:25.935Z,15.85
2023-02-17T08:51:52.935Z,15.40
2023-02-17T08:54:20.385Z,14.65
2023-02-17T08:56:47.189Z,15.73
2023-02-17T08:59:14.372Z,13.82
2023-02-17T09:01:42.122Z,16.05
2023-02-17T09:04:11.376Z,16.15
2023-02-17T09:06:48.063Z,15.10
2023-02-17T09:09:17.875Z,15.87
2023-02-17T09:11:45.230Z,15.80
2023-02-17T09:14:12.610Z,15.68
2023-02-17T09:16:41.356Z,15.50
2023-02-17T09:19:08.567Z,16.33
2023-02-17T09:21:35.473Z,16.50
2023-02-17T09:24:02.413Z,15.82
2023-02-17T09:26:29.353Z,16.77
2023-02-17T09:28:58.010Z,15.48
2023-02-17T09:31:26.932Z,16.30
2023-02-17T09:33:55.380Z,15.95
2023-02-17T09:36:28.963Z,16.20
2023-02-17T09:38:56.456Z,15.85
2023-02-17T09:41:23.293Z,15.45
2023-02-17T09:43:54.276Z,16.30
2023-02-17T09:46:29.783Z,15.63
2023-02-17T09:49:02.829Z,15.10
2023-02-17T09:51:37.914Z,15.48
2023-02-17T09:54:04.760Z,15.50
2023-02-17T09:56:39.067Z,15.60
2023-02-17T09:59:18.494Z,15.27
2023-02-17T10:01:47.361Z,14.88
2023-02-17T10:04:27.036Z,14.43
2023-02-17T10:07:02.757Z,15.30
2023-02-17T10:09:32.605Z,14.98
2023-02-17T10:12:13.952Z,14.13
2023-02-17T10:14:51.806Z,13.10
2023-02-17T10:17:33.992Z,15.07
2023-02-17T10:20:20.146Z,14.50
2023-02-17T10:22:57.097Z,13.95
2023-02-17T10:25:54.179Z,13.18
2023-02-17T10:28:53.837Z,13.80
2023-02-17T10:31:31.281Z,13.45
2023-02-17T10:34:12.681Z,13.02
2023-02-17T10:36:39.546Z,14.50
2023-02-17T10:39:13.784Z,13.90
2023-02-17T10:41:43.844Z,12.70
2023-02-17T10:44:19.828Z,12.90
2023-02-17T10:46:48.582Z,11.13
2023-02-17T10:49:39.557Z,13.02
2023-02-17T10:52:16.897Z,12.30
2023-02-17T10:55:22.792Z,12.82
2023-02-17T10:57:57.494Z,11.93
2023-02-17T11:00:24.586Z,12.07
2023-02-17T11:02:52.420Z,13.05
2023-02-17T11:05:28.379Z,13.40
2023-02-17T11:07:59.362Z,12.10
2023-02-17T11:10:35.465Z,11.95
2023-02-17T11:13:03.815Z,12.32
2023-02-17T11:15:36.050Z,12.88
2023-02-17T11:18:11.364Z,11.43
2023-02-17T11:20:38.748Z,13.13
2023-02-17T11:23:20.563Z,11.38
2023-02-17T11:25:57.098Z,12.18
2023-02-17T11:28:25.982Z,12.55
2023-02-17T11:30:59.586Z,12.38
2023-02-17T11:33:35.955Z,12.00
2023-02-17T11:36:04.459Z,10.38
2023-02-17T11:38:44.919Z,11.45
2023-02-17T11:41:12.063Z,12.35
2023-02-17T11:43:39.983Z,9.67
2023-02-17T11:46:15.924Z,11.60
2023-02-17T11:49:19.814Z,11.70
2023-02-17T11:52:11.190Z,11.48
2023-02-17T11:55:10.348Z,11.68
2023-02-17T11:57:52.373Z,11.90
2023-02-17T12:00:33.297Z,11.68
2023-02-17T12:03:25.204Z,11.20
2023-02-17T12:05:55.081Z,10.65
2023-02-17T12:08:40.428Z,10.90
2023-02-17T12:11:25.936Z,10.73
2023-02-17T12:14:31.219Z,9.02
2023-02-17T12:17:16.004Z,9.90
2023-02-17T12:20:07.231Z,9.50
2023-02-17T12:22:47.114Z,9.30
2023-02-17T12:25:37.479Z,8.88
2023-02-17T12:28:29.074Z,9.57
2023-02-17T12:31:02.634Z,8.70
2023-02-17T12:33:47.919Z,6.78
2023-02-17T12:36:19.743Z,6.30
2023-02-17T12:39:20.402Z,7.32
2023-02-17T12:41:58.259Z,7.30
2023-02-17T12:44:39.310Z,7.25
2023-02-17T12:47:32.568Z,7.40
2023-02-17T12:50:14.546Z,6.85
2023-02-17T12:52:46.258Z,7.20
2023-02-17T12:55:24.850Z,7.88
2023-02-17T12:58:00.615Z,7.13
2023-02-17T13:00:48.496Z,6.97
2023-02-17T13:03:15.673Z,7.88
2023-02-17T13:05:53.778Z,8.80
2023-02-17T13:08:27.542Z,8.80
2023-02-17T13:11:34.228Z,10.10
2023-02-17T13:14:53.217Z,9.95
2023-02-17T13:17:40.484Z,10.18
2023-02-17T13:20:47.908Z,11.23
2023-02-17T13:23:28.189Z,10.75
2023-02-17T13:26:23.702Z,11.10
2023-02-17T13:28:53.422Z,11.63
2023-02-17T13:31:26.316Z,10.75
2023-02-17T13:33:56.081Z,12.65
2023-02-17T13:36:28.899Z,13.40
2023-02-17T13:38:59.864Z,13.05
2023-02-17T13:41:28.521Z,12.93
2023-02-17T13:43:56.104Z,12.15
2023-02-17T13:46:26.942Z,12.67
2023-02-17T13:49:07.108Z,11.95
2023-02-17T13:51:34.496Z,11.95
2023-02-17T13:54:09.093Z,12.30
2023-02-17T13:56:36.234Z,11.88
2023-02-17T13:59:11.879Z,11.60
2023-02-17T14:01:42.295Z,11.60
2023-02-17T14:04:32.307Z,11.32
2023-02-17T14:07:01.054Z,10.68
2023-02-17T14:09:32.912Z,9.80
2023-02-17T14:12:02.911Z,9.00
2023-02-17T14:14:32.945Z,8.77
2023-02-17T14:17:07.214Z,8.90
2023-02-17T14:19:48.363Z,9.00
2023-02-17T14:22:28.711Z,9.60
2023-02-17T14:25:14.146Z,9.00
2023-02-17T14:27:44.747Z,8.88
2023-02-17T14:30:33.554Z,8.85
2023-02-17T14:33:06.428Z,8.38
2023-02-17T14:35:35.426Z,7.85
2023-02-17T14:38:26.504Z,7.88
2023-02-17T14:40:55.848Z,7.75
2023-02-17T14:43:23.792Z,7.90
2023-02-17T14:45:51.367Z,7.43
2023-02-17T14:48:18.739Z,7.87
2023-02-17T14:50:46.513Z,7.93
2023-02-17T14:53:33.330Z,7.18
2023-02-17T14:56:07.134Z,6.53
2023-02-17T15:01:02.529Z,6.07
2023-02-17T15:03:29.438Z,6.40
2023-02-17T15:05:56.547Z,6.40
2023-02-17T15:08:32.134Z,6.22
2023-02-17T15:10:59.149Z,7.05
2023-02-17T15:13:26.642Z,7.30
2023-02-17T15:15:53.897Z,6.90
2023-02-17T15:18:21.325Z,7.32
2023-02-17T15:20:50.462Z,7.32
2023-02-17T15:23:23.074Z,6.80
2023-02-17T15:25:50.286Z,7.00
2023-02-17T15:28:19.414Z,7.18
2023-02-17T15:30:51.634Z,7.45
2023-02-17T15:33:20.277Z,7.35
2023-02-17T15:35:50.371Z,7.68
2023-02-17T15:38:17.413Z,7.47
2023-02-17T15:40:44.402Z,8.10
2023-02-17T15:43:19.573Z,8.23
2023-02-17T15:45:46.958Z,7.68
2023-02-17T15:48:25.139Z,8.50
2023-02-17T15:50:53.172Z,7.88
2023-02-17T15:53:20.066Z,8.63
2023-02-17T15:55:47.469Z,8.00
2023-02-17T15:58:21.034Z,8.20
2023-02-17T16:00:51.971Z,7.68
2023-02-17T16:03:19.040Z,8.17
2023-02-17T16:05:46.038Z,8.10
2023-02-17T16:08:12.985Z,7.60
2023-02-17T16:10:42.443Z,7.22
2023-02-17T16:13:14.723Z,8.47
2023-02-17T16:15:42.820Z,8.20
2023-02-17T16:18:36.219Z,7.93
2023-02-17T16:21:03.055Z,8.23
2023-02-17T16:23:29.863Z,7.00
2023-02-17T16:25:56.678Z,7.90
2023-02-17T16:28:23.513Z,8.30
2023-02-17T16:30:50.545Z,7.90
2023-02-17T16:33:18.228Z,8.02
2023-02-17T16:35:45.523Z,7.25
2023-02-17T16:38:17.390Z,7.50
2023-02-17T16:40:49.479Z,7.90
2023-02-17T16:43:19.995Z,7.45
2023-02-17T16:45:56.641Z,7.47
2023-02-17T16:48:26.081Z,7.65
2023-02-17T16:50:53.089Z,7.60
2023-02-17T16:53:20.368Z,8.07
2023-02-17T16:55:47.187Z,7.80
2023-02-17T16:58:19.326Z,8.00
2023-02-17T17:00:51.524Z,8.30
2023-02-17T17:03:24.637Z,8.23
2023-02-17T17:05:52.599Z,8.77
2023-02-17T17:08:21.572Z,9.65
2023-02-17T17:10:49.441Z,9.10
2023-02-17T17:13:16.961Z,8.52
2023-02-17T17:15:45.613Z,7.97
2023-02-17T17:18:21.075Z,8.07
2023-02-17T17:20:48.749Z,8.68
2023-02-17T17:23:16.345Z,9.10
2023-02-17T17:25:48.694Z,9.13
2023-02-17T17:28:20.007Z,8.60
2023-02-17T17:30:47.771Z,9.15
2023-02-17T17:33:15.308Z,9.40
2023-02-17T17:35:42.735Z,9.10
2023-02-17T17:38:14.495Z,10.13
2023-02-17T17:40:50.346Z,10.00
2023-02-17T17:43:22.108Z,10.55
2023-02-17T17:45:50.642Z,10.73
2023-02-17T17:48:17.962Z,11.80
2023-02-17T17:50:45.242Z,12.07
2023-02-17T17:53:12.059Z,13.20
2023-02-17T17:55:38.909Z,10.98
2023-02-17T17:58:05.748Z,8.65
2023-02-17T18:00:32.705Z,7.47
2023-02-17T18:02:59.612Z,5.37
2023-02-17T18:05:26.439Z,5.68
2023-02-17T18:07:53.549Z,5.72
2023-02-17T18:10:20.762Z,5.68
2023-02-17T18:12:48.127Z,4.32
2023-02-17T18:15:17.038Z,5.43
2023-02-17T18:17:44.042Z,7.78
2023-02-17T18:20:12.286Z,6.72
2023-02-17T18:22:39.370Z,6.53
2023-02-17T18:25:07.167Z,9.70
2023-02-17T18:27:42.226Z,5.85
2023-02-17T18:30:12.455Z,7.65
2023-02-17T18:32:39.409Z,9.38
2023-02-17T18:35:06.586Z,5.93
2023-02-17T18:37:33.835Z,6.00
2023-02-17T18:40:02.228Z,6.72
2023-02-17T18:42:29.192Z,5.57
2023-02-17T18:44:56.752Z,6.53
2023-02-17T18:47:23.991Z,3.38
2023-02-17T18:49:51.175Z,7.70
2023-02-17T18:52:18.207Z,4.18
2023-02-17T18:54:45.676Z,5.25
2023-02-17T18:57:12.576Z,3.88
2023-02-17T18:59:39.350Z,4.53
2023-02-17T19:02:10.344Z,3.80
2023-02-17T19:04:37.713Z,5.20
2023-02-17T19:07:06.919Z,29.70
2023-02-17T19:09:38.607Z,4.55
2023-02-17T19:12:09.839Z,4.45
2023-02-17T19:14:37.616Z,7.55
2023-02-17T19:17:04.537Z,3.72
2023-02-17T19:19:31.588Z,4.70
2023-02-17T19:21:58.572Z,6.00
2023-02-17T19:24:25.614Z,5.00
2023-02-17T19:26:54.624Z,7.50
2023-02-17T19:29:22.839Z,8.00
2023-02-17T19:31:49.962Z,5.80
2023-02-17T19:34:19.877Z,4.40
2023-02-17T19:36:46.957Z,4.60
2023-02-17T19:39:13.805Z,3.83
2023-02-17T19:41:40.712Z,3.63
2023-02-17T19:44:07.599Z,3.83
2023-02-17T19:46:34.477Z,6.78
2023-02-17T19:49:01.422Z,4.07
2023-02-17T19:51:28.200Z,6.35
2023-02-17T19:53:57.928Z,6.20
2023-02-17T19:56:27.018Z,3.63
2023-02-17T19:58:54.732Z,3.63
2023-02-17T20:01:26.943Z,3.58
2023-02-17T20:03:55.278Z,7.45
2023-02-17T20:06:24.090Z,10.93
2023-02-17T20:09:02.389Z,3.85
2023-02-17T20:11:30.053Z,4.18
2023-02-17T20:13:57.800Z,3.43
2023-02-17T20:16:25.270Z,4.73
2023-02-17T20:18:52.743Z,3.35
2023-02-17T20:21:22.845Z,5.40
2023-02-17T20:23:51.002Z,4.25
2023-02-17T20:26:21.764Z,3.28
2023-02-17T20:28:49.530Z,3.33
2023-02-17T20:31:16.584Z,3.35
2023-02-17T20:33:43.607Z,4.10
2023-02-17T20:36:11.816Z,13.10
2023-02-17T20:38:40.043Z,3.83
2023-02-17T20:41:09.075Z,32.73
2023-02-17T20:43:37.676Z,4.03
2023-02-17T20:46:05.377Z,6.50
2023-02-17T20:48:32.616Z,5.60
2023-02-17T20:50:59.549Z,5.10
2023-02-17T20:53:27.085Z,4.32
2023-02-17T20:55:54.050Z,20.27
2023-02-17T20:58:21.442Z,5.93
2023-02-17T21:00:48.637Z,19.73
2023-02-17T21:03:15.600Z,12.43
2023-02-17T21:05:42.618Z,9.27
2023-02-17T21:08:09.608Z,3.80
2023-02-17T21:10:36.551Z,4.40
2023-02-17T21:13:03.400Z,5.25
2023-02-17T21:15:30.198Z,5.63
2023-02-17T21:17:57.042Z,30.80
2023-02-17T21:20:24.108Z,20.80
2023-02-17T21:22:51.446Z,7.20
2023-02-17T21:25:18.542Z,22.05
2023-02-17T21:27:45.379Z,11.55
2023-02-17T21:30:13.071Z,5.30
2023-02-17T21:32:40.113Z,5.13
2023-02-17T21:35:09.755Z,11.85
2023-02-17T21:37:38.968Z,4.03
2023-02-17T21:40:10.523Z,4.38
2023-02-17T21:42:57.032Z,3.58
2023-02-17T21:45:24.887Z,4.63
2023-02-17T21:47:51.786Z,4.68
2023-02-17T21:50:19.503Z,5.03
2023-02-17T21:52:46.367Z,5.97
2023-02-17T21:55:13.327Z,5.15
2023-02-17T21:57:40.163Z,5.85
2023-02-17T22:00:08.836Z,8.52
2023-02-17T22:02:36.653Z,14.95
2023-02-17T22:05:04.198Z,6.55
2023-02-17T22:07:31.190Z,7.25
2023-02-17T22:09:59.349Z,6.00
2023-02-17T22:12:26.371Z,5.90
2023-02-17T22:14:53.249Z,7.82
2023-02-17T22:17:20.155Z,6.30
2023-02-17T22:19:47.112Z,8.70
2023-02-17T22:22:14.057Z,7.27
2023-02-17T22:24:41.133Z,8.98
2023-02-17T22:27:08.059Z,9.57
2023-02-17T22:29:34.920Z,11.45
2023-02-17T22:32:01.825Z,13.75
2023-02-17T22:34:29.120Z,13.50
2023-02-17T22:36:56.010Z,13.13
2023-02-17T22:39:23.893Z,13.65
2023-02-17T22:41:50.778Z,15.23
2023-02-17T22:44:17.767Z,14.50
2023-02-17T22:46:44.592Z,15.82
2023-02-17T22:49:11.969Z,15.93
2023-02-17T22:51:39.861Z,15.47
2023-02-17T22:54:07.910Z,16.17
2023-02-17T22:56:34.916Z,15.35
2023-02-17T22:59:04.026Z,16.08
2023-02-17T23:01:33.214Z,17.13
2023-02-17T23:04:00.202Z,17.77
2023-02-17T23:06:31.907Z,17.50
2023-02-17T23:09:00.013Z,17.17
2023-02-17T23:11:48.221Z,17.88
2023-02-17T23:14:18.520Z,18.00
2023-02-17T23:16:45.853Z,17.40
2023-02-17T23:19:16.137Z,19.73
2023-02-17T23:21:54.070Z,20.67
2023-02-17T23:24:21.947Z,20.00
2023-02-17T23:26:50.266Z,20.67
2023-02-17T23:29:18.157Z,21.00
2023-02-17T23:31:45.296Z,21.33
2023-02-17T23:34:14.186Z,20.80
2023-02-17T23:36:42.593Z,22.67
2023-02-17T23:39:10.564Z,22.70
2023-02-17T23:41:38.404Z,23.95
2023-02-17T23:44:07.883Z,25.20
2023-02-17T23:46:35.322Z,26.00
2023-02-17T23:49:02.136Z,27.17
2023-02-17T23:51:28.960Z,28.17
2023-02-17T23:53:55.812Z,29.60
2023-02-17T23:56:26.526Z,29.00
2023-02-17T23:58:53.930Z,30.92
